createdAt,value
2023-02-06T00:01:38.726Z,-7.40
2023-02-06T00:04:06.852Z,-7.40
2023-02-06T00:06:35.328Z,-7.40
2023-02-06T00:09:03.564Z,-7.50
2023-02-06T00:11:31.707Z,-7.50
2023-02-06T00:14:01.217Z,-7.50
2023-02-06T00:16:31.453Z,-7.50
2023-02-06T00:19:00.493Z,-7.50
2023-02-06T00:21:30.041Z,-7.50
2023-02-06T00:24:00.106Z,-7.50
2023-02-06T00:26:28.901Z,-7.50
2023-02-06T00:28:56.863Z,-7.50
2023-02-06T00:31:26.315Z,-7.40
2023-02-06T00:33:54.311Z,-7.40
2023-02-06T00:36:22.381Z,-7.40
2023-02-06T00:38:50.765Z,-7.40
2023-02-06T00:41:19.105Z,-7.40
2023-02-06T00:43:47.244Z,-7.40
2023-02-06T00:46:15.319Z,-7.40
2023-02-06T00:48:44.596Z,-7.40
2023-02-06T00:51:12.832Z,-7.40
2023-02-06T00:53:41.115Z,-7.40
2023-02-06T00:56:09.112Z,-7.30
2023-02-06T00:58:37.263Z,-7.30
2023-02-06T01:01:05.372Z,-7.30
2023-02-06T01:03:34.310Z,-7.30
2023-02-06T01:06:04.148Z,-7.30
2023-02-06T01:08:32.099Z,-7.30
2023-02-06T01:11:00.371Z,-7.30
2023-02-06T01:13:28.657Z,-7.30
2023-02-06T01:15:56.990Z,-7.20
2023-02-06T01:18:25.098Z,-7.20
2023-02-06T01:20:53.072Z,-7.20
2023-02-06T01:23:22.475Z,-7.20
2023-02-06T01:25:50.357Z,-7.10
2023-02-06T01:28:18.324Z,-7.10
2023-02-06T01:30:46.464Z,-7.10
2023-02-06T01:33:14.460Z,-7.10
2023-02-06T01:35:42.500Z,-7.10
2023-02-06T01:38:10.458Z,-7.10
2023-02-06T01:40:40.283Z,-7.10
2023-02-06T01:43:17.890Z,-7.20
2023-02-06T01:45:47.755Z,-7.20
2023-02-06T01:48:20.142Z,-7.20
2023-02-06T01:50:51.828Z,-7.30
2023-02-06T01:53:21.598Z,-7.30
2023-02-06T01:55:52.861Z,-7.30
2023-02-06T01:58:25.658Z,-7.30
2023-02-06T02:00:54.111Z,-7.40
2023-02-06T02:03:22.245Z,-7.40
2023-02-06T02:05:52.252Z,-7.40
2023-02-06T02:08:26.596Z,-7.40
2023-02-06T02:10:56.510Z,-7.40
2023-02-06T02:13:24.974Z,-7.40
2023-02-06T02:16:01.853Z,-7.40
2023-02-06T02:18:46.616Z,-7.40
2023-02-06T02:21:49.619Z,-7.40
2023-02-06T02:24:24.242Z,-7.40
2023-02-06T02:27:28.230Z,-7.40
2023-02-06T02:30:31.266Z,-7.40
2023-02-06T02:33:18.407Z,-7.40
2023-02-06T02:35:54.926Z,-7.40
2023-02-06T02:38:38.684Z,-7.40
2023-02-06T02:41:14.996Z,-7.40
2023-02-06T02:43:45.678Z,-7.40
2023-02-06T02:46:24.295Z,-7.40
2023-02-06T02:48:55.708Z,-7.40
2023-02-06T02:51:26.030Z,-7.30
2023-02-06T02:53:56.922Z,-7.30
2023-02-06T02:56:26.811Z,-7.20
2023-02-06T02:58:58.144Z,-7.10
2023-02-06T03:01:31.041Z,-7.10
2023-02-06T03:04:03.099Z,-7.00
2023-02-06T03:06:44.241Z,-6.90
2023-02-06T03:09:17.989Z,-6.80
2023-02-06T03:11:51.947Z,-6.60
2023-02-06T03:14:30.974Z,-6.50
2023-02-06T03:17:04.478Z,-6.40
2023-02-06T03:19:35.498Z,-6.10
2023-02-06T03:22:06.429Z,-6.00
2023-02-06T03:24:39.617Z,-5.90
2023-02-06T03:27:12.367Z,-5.80
2023-02-06T03:29:43.250Z,-5.70
2023-02-06T03:32:17.074Z,-5.70
2023-02-06T03:34:52.339Z,-5.60
2023-02-06T03:37:23.045Z,-5.50
2023-02-06T03:39:51.170Z,-5.50
2023-02-06T03:42:19.936Z,-5.40
2023-02-06T03:44:53.195Z,-5.30
2023-02-06T03:47:23.518Z,-5.20
2023-02-06T03:49:53.688Z,-5.10
2023-02-06T03:52:26.913Z,-5.00
2023-02-06T03:54:58.901Z,-5.00
2023-02-06T03:57:30.909Z,-4.90
2023-02-06T03:59:59.234Z,-4.90
2023-02-06T04:02:27.932Z,-4.90
2023-02-06T04:04:56.135Z,-4.80
2023-02-06T04:07:28.623Z,-4.70
2023-02-06T04:09:56.831Z,-4.70
2023-02-06T04:12:25.848Z,-4.60
2023-02-06T04:14:54.092Z,-4.60
2023-02-06T04:17:38.748Z,-4.50
2023-02-06T04:20:11.542Z,-4.40
2023-02-06T04:22:41.873Z,-4.40
2023-02-06T04:25:10.057Z,-4.30
2023-02-06T04:27:38.862Z,-4.30
2023-02-06T04:30:08.044Z,-4.30
2023-02-06T04:32:36.328Z,-4.20
2023-02-06T04:35:04.290Z,-4.20
2023-02-06T04:37:33.151Z,-4.20
2023-02-06T04:40:02.628Z,-4.10
2023-02-06T04:42:31.089Z,-4.10
2023-02-06T04:44:59.004Z,-4.10
2023-02-06T04:47:27.074Z,-4.00
2023-02-06T04:49:55.015Z,-4.00
2023-02-06T04:52:23.071Z,-4.00
2023-02-06T04:54:51.108Z,-3.90
2023-02-06T04:57:20.858Z,-3.90
2023-02-06T04:59:49.030Z,-3.90
2023-02-06T05:02:16.995Z,-3.90
2023-02-06T05:04:45.049Z,-3.80
2023-02-06T05:07:14.136Z,-3.80
2023-02-06T05:09:42.372Z,-3.80
2023-02-06T05:12:11.621Z,-3.80
2023-02-06T05:14:43.626Z,-3.70
2023-02-06T05:17:11.850Z,-3.70
2023-02-06T05:19:39.871Z,-3.70
2023-02-06T05:22:08.259Z,-3.60
2023-02-06T05:24:36.525Z,-3.50
2023-02-06T05:27:05.093Z,-3.50
2023-02-06T05:29:33.145Z,-3.50
2023-02-06T05:32:02.605Z,-3.50
2023-02-06T05:34:30.683Z,-3.40
2023-02-06T05:36:59.484Z,-3.40
2023-02-06T05:39:27.499Z,-3.40
2023-02-06T05:41:55.950Z,-3.40
2023-02-06T05:44:23.981Z,-3.40
2023-02-06T05:46:52.218Z,-3.30
2023-02-06T05:49:21.642Z,-3.30
2023-02-06T05:51:49.942Z,-3.30
2023-02-06T05:54:18.540Z,-3.30
2023-02-06T05:56:46.500Z,-3.30
2023-02-06T05:59:15.040Z,-3.30
2023-02-06T06:01:43.030Z,-3.20
2023-02-06T06:04:11.363Z,-3.20
2023-02-06T06:06:40.915Z,-3.20
2023-02-06T06:09:10.040Z,-3.20
2023-02-06T06:11:37.977Z,-3.20
2023-02-06T06:14:06.087Z,-3.20
2023-02-06T06:16:34.180Z,-3.10
2023-02-06T06:19:02.800Z,-3.10
2023-02-06T06:21:30.957Z,-3.10
2023-02-06T06:24:00.380Z,-3.10
2023-02-06T06:26:28.418Z,-3.10
2023-02-06T06:28:57.118Z,-3.10
2023-02-06T06:31:25.237Z,-3.00
2023-02-06T06:33:54.242Z,-3.00
2023-02-06T06:36:22.503Z,-3.00
2023-02-06T06:38:50.633Z,-2.90
2023-02-06T06:41:19.902Z,-2.90
2023-02-06T06:43:48.703Z,-2.80
2023-02-06T06:46:18.950Z,-2.80
2023-02-06T06:48:46.901Z,-2.80
2023-02-06T06:51:14.864Z,-2.70
2023-02-06T06:53:42.865Z,-2.70
2023-02-06T06:56:13.486Z,-2.70
2023-02-06T06:58:43.374Z,-2.70
2023-02-06T07:01:11.369Z,-2.60
2023-02-06T07:03:39.328Z,-2.60
2023-02-06T07:06:07.318Z,-2.60
2023-02-06T07:08:40.475Z,-2.60
2023-02-06T07:11:08.597Z,-2.50
2023-02-06T07:13:36.673Z,-2.50
2023-02-06T07:16:06.649Z,-2.50
2023-02-06T07:18:34.566Z,-2.40
2023-02-06T07:21:03.461Z,-2.40
2023-02-06T07:23:31.438Z,-2.40
2023-02-06T07:26:02.353Z,-2.40
2023-02-06T07:28:30.742Z,-2.40
2023-02-06T07:31:01.760Z,-2.30
2023-02-06T07:33:31.192Z,-2.30
2023-02-06T07:36:00.319Z,-2.20
2023-02-06T07:38:29.786Z,-2.20
2023-02-06T07:41:02.000Z,-2.20
2023-02-06T07:43:30.282Z,-2.10
2023-02-06T07:46:00.819Z,-2.10
2023-02-06T07:48:30.535Z,-2.10
2023-02-06T07:50:58.899Z,-2.00
2023-02-06T07:53:26.983Z,-2.00
2023-02-06T07:55:54.926Z,-2.00
2023-02-06T07:58:22.905Z,-1.90
2023-02-06T08:00:50.943Z,-1.90
2023-02-06T08:03:19.211Z,-1.80
2023-02-06T08:05:48.526Z,-1.80
2023-02-06T08:08:16.563Z,-1.70
2023-02-06T08:10:44.572Z,-1.60
2023-02-06T08:13:12.615Z,-1.60
2023-02-06T08:15:40.639Z,-1.50
2023-02-06T08:18:09.139Z,-1.60
2023-02-06T08:20:37.124Z,-1.50
2023-02-06T08:23:08.109Z,-1.50
2023-02-06T08:25:36.215Z,-1.40
2023-02-06T08:28:04.809Z,-1.30
2023-02-06T08:30:34.441Z,-1.20
2023-02-06T08:33:02.410Z,-1.10
2023-02-06T08:35:30.291Z,-1.10
2023-02-06T08:37:58.197Z,-1.00
2023-02-06T08:40:27.584Z,-1.00
2023-02-06T08:42:55.614Z,-0.90
2023-02-06T08:45:23.631Z,-0.90
2023-02-06T08:47:52.167Z,-0.90
2023-02-06T08:50:20.498Z,-0.80
2023-02-06T08:52:48.397Z,-0.90
2023-02-06T08:55:16.447Z,-0.90
2023-02-06T08:57:45.675Z,-0.90
2023-02-06T09:00:15.047Z,-0.90
2023-02-06T09:02:43.099Z,-0.90
2023-02-06T09:05:11.158Z,-0.70
2023-02-06T09:07:39.424Z,-0.70
2023-02-06T09:10:16.182Z,-0.70
2023-02-06T09:12:54.594Z,-0.50
2023-02-06T09:15:22.546Z,-0.40
2023-02-06T09:17:50.517Z,-0.30
2023-02-06T09:20:18.939Z,-0.10
2023-02-06T09:22:47.004Z,0.10
2023-02-06T09:25:15.122Z,0.20
2023-02-06T09:27:46.749Z,0.10
2023-02-06T09:30:16.790Z,0.10
2023-02-06T09:32:44.921Z,0.10
2023-02-06T09:35:12.930Z,0.10
2023-02-06T09:37:41.012Z,0.20
2023-02-06T09:41:01.929Z,0.30
2023-02-06T09:43:04.430Z,0.50
2023-02-06T09:45:35.104Z,0.70
2023-02-06T09:48:18.732Z,0.80
2023-02-06T09:50:56.834Z,1.00
2023-02-06T09:53:31.114Z,0.90
2023-02-06T09:56:08.666Z,1.00
2023-02-06T09:58:43.289Z,1.00
2023-02-06T10:01:18.561Z,1.00
2023-02-06T10:03:58.630Z,0.80
2023-02-06T10:06:29.354Z,0.80
2023-02-06T10:09:03.230Z,0.90
2023-02-06T10:11:42.411Z,0.90
2023-02-06T10:14:19.136Z,0.90
2023-02-06T10:16:52.816Z,0.90
2023-02-06T10:19:26.321Z,1.00
2023-02-06T10:22:01.223Z,1.00
2023-02-06T10:24:36.345Z,1.00
2023-02-06T10:27:10.841Z,1.00
2023-02-06T10:29:40.520Z,1.00
2023-02-06T10:32:30.381Z,1.10
2023-02-06T10:35:24.078Z,1.10
2023-02-06T10:38:12.318Z,1.10
2023-02-06T10:40:46.830Z,1.20
2023-02-06T10:43:22.933Z,1.20
2023-02-06T10:45:57.959Z,1.20
2023-02-06T10:48:34.079Z,1.10
2023-02-06T10:51:17.073Z,1.20
2023-02-06T10:53:51.003Z,1.20
2023-02-06T10:56:24.711Z,1.20
2023-02-06T10:58:55.779Z,1.30
2023-02-06T11:01:27.077Z,1.30
2023-02-06T11:04:01.051Z,1.30
2023-02-06T11:06:30.956Z,1.30
2023-02-06T11:08:59.288Z,1.30
2023-02-06T11:11:29.984Z,1.30
2023-02-06T11:14:05.533Z,1.20
2023-02-06T11:16:37.566Z,1.20
2023-02-06T11:19:17.521Z,1.30
2023-02-06T11:21:55.227Z,1.30
2023-02-06T11:24:25.939Z,1.30
2023-02-06T11:26:57.638Z,1.20
2023-02-06T11:29:28.414Z,1.20
2023-02-06T11:31:58.688Z,1.10
2023-02-06T11:34:31.713Z,1.00
2023-02-06T11:37:01.872Z,1.00
2023-02-06T11:39:32.523Z,1.00
2023-02-06T11:42:03.336Z,1.00
2023-02-06T11:44:37.763Z,1.10
2023-02-06T11:47:37.617Z,1.00
2023-02-06T11:50:23.013Z,1.00
2023-02-06T11:52:58.539Z,1.10
2023-02-06T11:55:29.531Z,1.00
2023-02-06T11:58:07.546Z,1.00
2023-02-06T12:00:38.093Z,0.90
2023-02-06T12:03:07.514Z,1.00
2023-02-06T12:05:42.884Z,1.00
2023-02-06T12:08:16.875Z,1.00
2023-02-06T12:11:06.298Z,1.00
2023-02-06T12:13:39.685Z,0.90
2023-02-06T12:16:22.590Z,0.80
2023-02-06T12:22:16.562Z,0.90
2023-02-06T12:25:08.822Z,0.90
2023-02-06T12:30:36.215Z,0.90
2023-02-06T12:33:11.093Z,0.90
2023-02-06T12:35:45.248Z,0.80
2023-02-06T12:38:19.816Z,0.80
2023-02-06T12:41:03.666Z,0.80
2023-02-06T12:43:36.797Z,0.80
2023-02-06T12:46:10.443Z,0.80
2023-02-06T12:48:45.305Z,0.80
2023-02-06T12:51:21.705Z,0.80
2023-02-06T12:53:55.125Z,0.80
2023-02-06T12:56:30.046Z,0.80
2023-02-06T12:59:14.867Z,0.80
2023-02-06T13:01:52.770Z,0.80
2023-02-06T13:04:24.704Z,0.80
2023-02-06T13:06:55.707Z,0.60
2023-02-06T13:09:28.275Z,0.60
2023-02-06T13:12:09.566Z,0.60
2023-02-06T13:14:39.871Z,0.70
2023-02-06T13:17:11.651Z,0.80
2023-02-06T13:20:01.249Z,1.00
2023-02-06T13:22:49.519Z,1.00
2023-02-06T13:25:51.118Z,1.10
2023-02-06T13:28:43.297Z,1.00
2023-02-06T13:31:27.530Z,0.90
2023-02-06T13:34:00.436Z,0.90
2023-02-06T13:36:44.613Z,0.90
2023-02-06T13:39:25.172Z,0.80
2023-02-06T13:41:53.904Z,0.80
2023-02-06T13:44:29.227Z,0.80
2023-02-06T13:47:43.770Z,0.80
2023-02-06T13:50:49.115Z,0.80
2023-02-06T13:53:47.208Z,0.80
2023-02-06T13:56:39.727Z,0.80
2023-02-06T13:59:16.023Z,0.80
2023-02-06T14:01:45.799Z,0.80
2023-02-06T14:04:20.091Z,0.80
2023-02-06T14:07:00.028Z,0.80
2023-02-06T14:09:51.423Z,0.80
2023-02-06T14:12:31.616Z,0.80
2023-02-06T14:15:15.240Z,0.90
2023-02-06T14:17:59.750Z,0.90
2023-02-06T14:20:39.785Z,0.90
2023-02-06T14:23:17.518Z,0.90
2023-02-06T14:25:58.317Z,0.90
2023-02-06T14:28:32.098Z,1.00
2023-02-06T14:31:09.868Z,1.00
2023-02-06T14:33:59.252Z,1.00
2023-02-06T14:36:51.816Z,1.00
2023-02-06T14:39:43.932Z,0.90
2023-02-06T14:42:17.389Z,0.90
2023-02-06T14:44:51.380Z,0.90
2023-02-06T14:47:22.090Z,0.80
2023-02-06T14:49:52.679Z,0.80
2023-02-06T14:52:24.385Z,0.80
2023-02-06T14:54:52.546Z,0.80
2023-02-06T14:57:24.854Z,0.80
2023-02-06T14:59:55.158Z,0.70
2023-02-06T15:02:31.543Z,0.60
2023-02-06T15:05:02.089Z,0.60
2023-02-06T15:07:32.570Z,0.50
2023-02-06T15:10:05.715Z,0.50
2023-02-06T15:12:34.230Z,0.50
2023-02-06T15:15:05.450Z,0.40
2023-02-06T15:17:34.492Z,0.30
2023-02-06T15:20:37.136Z,0.20
2023-02-06T15:23:17.876Z,0.10
2023-02-06T15:26:03.695Z,0.00
2023-02-06T15:28:33.981Z,-0.10
2023-02-06T15:31:02.895Z,-0.20
2023-02-06T15:33:33.195Z,-0.40
2023-02-06T15:36:04.719Z,-0.50
2023-02-06T15:38:34.439Z,-0.60
2023-02-06T15:41:06.546Z,-0.70
2023-02-06T15:43:35.502Z,-0.70
2023-02-06T15:46:06.269Z,-0.70
2023-02-06T15:48:38.182Z,-0.70
2023-02-06T15:51:20.728Z,-0.80
2023-02-06T15:53:50.744Z,-0.90
2023-02-06T15:56:23.980Z,-1.00
2023-02-06T15:58:58.964Z,-1.10
2023-02-06T16:01:30.485Z,-1.20
2023-02-06T16:04:04.876Z,-1.20
2023-02-06T16:06:34.269Z,-1.30
2023-02-06T16:09:06.507Z,-1.30
2023-02-06T16:11:51.301Z,-1.40
2023-02-06T16:14:34.012Z,-1.40
2023-02-06T16:17:05.524Z,-1.50
2023-02-06T16:19:48.006Z,-1.60
2023-02-06T16:22:27.520Z,-1.70
2023-02-06T16:25:12.699Z,-1.80
2023-02-06T16:27:44.665Z,-1.90
2023-02-06T16:30:28.222Z,-1.90
2023-02-06T16:32:58.087Z,-2.10
2023-02-06T16:35:26.488Z,-2.20
2023-02-06T16:37:56.011Z,-2.30
2023-02-06T16:40:26.226Z,-2.40
2023-02-06T16:42:54.454Z,-2.40
2023-02-06T16:45:25.919Z,-2.50
2023-02-06T16:47:54.914Z,-2.60
2023-02-06T16:50:23.629Z,-2.70
2023-02-06T16:52:53.570Z,-2.80
2023-02-06T16:55:24.610Z,-2.80
2023-02-06T16:57:55.880Z,-2.90
2023-02-06T17:00:26.652Z,-2.90
2023-02-06T17:02:55.511Z,-3.00
2023-02-06T17:05:26.721Z,-3.00
2023-02-06T17:07:55.484Z,-3.10
2023-02-06T17:10:27.313Z,-3.10
2023-02-06T17:12:55.373Z,-3.20
2023-02-06T17:15:23.576Z,-3.30
2023-02-06T17:17:53.756Z,-3.30
2023-02-06T17:20:32.134Z,-3.40
2023-02-06T17:23:00.322Z,-3.50
2023-02-06T17:25:29.939Z,-3.50
2023-02-06T17:27:58.211Z,-3.50
2023-02-06T17:30:27.628Z,-3.60
2023-02-06T17:32:56.392Z,-3.60
2023-02-06T17:35:24.392Z,-3.70
2023-02-06T17:37:54.960Z,-3.70
2023-02-06T17:40:26.481Z,-3.80
2023-02-06T17:42:56.149Z,-3.80
2023-02-06T17:45:24.472Z,-3.90
2023-02-06T17:47:53.023Z,-4.00
2023-02-06T17:50:22.114Z,-4.00
2023-02-06T17:52:52.979Z,-4.00
2023-02-06T17:55:21.108Z,-4.10
2023-02-06T17:57:49.088Z,-4.10
2023-02-06T18:00:22.212Z,-4.10
2023-02-06T18:02:50.278Z,-4.10
2023-02-06T18:05:18.366Z,-4.20
2023-02-06T18:07:49.534Z,-4.20
2023-02-06T18:10:18.528Z,-4.20
2023-02-06T18:12:47.525Z,-4.30
2023-02-06T18:15:16.605Z,-4.40
2023-02-06T18:17:46.002Z,-4.40
2023-02-06T18:20:15.100Z,-4.50
2023-02-06T18:22:43.409Z,-4.50
2023-02-06T18:25:13.366Z,-4.50
2023-02-06T18:27:42.902Z,-4.60
2023-02-06T18:30:12.095Z,-4.70
2023-02-06T18:32:40.486Z,-4.70
2023-02-06T18:35:10.946Z,-4.70
2023-02-06T18:37:39.026Z,-4.80
2023-02-06T18:40:07.714Z,-4.80
2023-02-06T18:42:54.533Z,-4.90
2023-02-06T18:45:24.317Z,-4.80
2023-02-06T18:47:52.453Z,-4.80
2023-02-06T18:50:22.446Z,-4.90
2023-02-06T18:52:51.060Z,-4.90
2023-02-06T18:55:19.329Z,-4.90
2023-02-06T18:57:47.569Z,-4.90
2023-02-06T19:00:18.293Z,-4.90
2023-02-06T19:02:46.578Z,-4.90
2023-02-06T19:05:15.144Z,-4.90
2023-02-06T19:07:50.276Z,-5.00
2023-02-06T19:10:18.594Z,-5.10
2023-02-06T19:12:46.993Z,-5.20
2023-02-06T19:15:16.191Z,-5.20
2023-02-06T19:17:44.879Z,-5.20
2023-02-06T19:20:13.544Z,-5.30
2023-02-06T19:22:41.515Z,-5.40
2023-02-06T19:25:14.482Z,-5.40
2023-02-06T19:27:42.970Z,-5.40
2023-02-06T19:30:13.049Z,-5.40
2023-02-06T19:32:40.999Z,-5.40
2023-02-06T19:35:09.207Z,-5.40
2023-02-06T19:37:37.227Z,-5.40
2023-02-06T19:40:05.695Z,-5.50
2023-02-06T19:42:35.003Z,-5.50
2023-02-06T19:45:04.201Z,-5.60
2023-02-06T19:47:32.201Z,-5.70
2023-02-06T19:50:00.063Z,-5.70
2023-02-06T19:52:28.527Z,-5.70
2023-02-06T19:54:56.498Z,-5.70
2023-02-06T19:57:24.391Z,-5.80
2023-02-06T19:59:53.829Z,-5.80
2023-02-06T20:02:21.773Z,-5.90
2023-02-06T20:04:49.886Z,-5.90
2023-02-06T20:07:17.865Z,-5.90
2023-02-06T20:09:45.776Z,-6.00
2023-02-06T20:12:13.994Z,-6.10
2023-02-06T20:14:42.265Z,-6.10
2023-02-06T20:17:11.590Z,-6.10
2023-02-06T20:19:39.593Z,-6.10
2023-02-06T20:22:07.793Z,-6.20
2023-02-06T20:24:35.734Z,-6.30
2023-02-06T20:27:07.763Z,-6.30
2023-02-06T20:29:37.411Z,-6.20
2023-02-06T20:32:06.517Z,-6.30
2023-02-06T20:34:36.574Z,-6.40
2023-02-06T20:37:05.014Z,-6.40
2023-02-06T20:39:33.110Z,-6.40
2023-02-06T20:42:01.343Z,-6.50
2023-02-06T20:44:29.797Z,-6.50
2023-02-06T20:46:57.804Z,-6.40
2023-02-06T20:49:30.030Z,-6.50
2023-02-06T20:51:59.477Z,-6.50
2023-02-06T20:54:27.436Z,-6.50
2023-02-06T20:56:55.479Z,-6.60
2023-02-06T20:59:23.883Z,-6.70
2023-02-06T21:01:51.936Z,-6.70
2023-02-06T21:04:20.975Z,-6.70
2023-02-06T21:06:50.050Z,-6.70
2023-02-06T21:09:19.888Z,-6.70
2023-02-06T21:11:50.177Z,-6.70
2023-02-06T21:14:19.463Z,-6.80
2023-02-06T21:16:47.786Z,-6.80
2023-02-06T21:19:19.104Z,-6.70
2023-02-06T21:21:47.058Z,-6.70
2023-02-06T21:24:16.072Z,-6.80
2023-02-06T21:26:45.980Z,-6.80
2023-02-06T21:29:14.943Z,-6.90
2023-02-06T21:31:44.140Z,-6.90
2023-02-06T21:34:18.157Z,-7.00
2023-02-06T21:36:46.834Z,-7.00
2023-02-06T21:39:17.394Z,-7.00
2023-02-06T21:41:47.923Z,-7.10
2023-02-06T21:44:15.859Z,-7.10
2023-02-06T21:46:43.709Z,-7.10
2023-02-06T21:49:11.870Z,-7.10
2023-02-06T21:51:40.085Z,-7.10
2023-02-06T21:54:08.310Z,-7.10
2023-02-06T21:56:38.331Z,-7.20
2023-02-06T21:59:08.462Z,-7.20
2023-02-06T22:01:39.026Z,-7.20
2023-02-06T22:04:07.279Z,-7.20
2023-02-06T22:06:36.907Z,-7.30
2023-02-06T22:09:07.756Z,-7.30
2023-02-06T22:11:37.295Z,-7.30
2023-02-06T22:14:10.671Z,-7.30
2023-02-06T22:16:38.657Z,-7.30
2023-02-06T22:19:07.071Z,-7.40
2023-02-06T22:21:35.554Z,-7.40
2023-02-06T22:24:06.704Z,-7.40
2023-02-06T22:26:38.426Z,-7.40
2023-02-06T22:29:08.769Z,-7.50
2023-02-06T22:31:37.754Z,-7.50
2023-02-06T22:34:06.124Z,-7.50
2023-02-06T22:36:34.883Z,-7.50
2023-02-06T22:39:06.460Z,-7.50
2023-02-06T22:41:35.130Z,-7.50
2023-02-06T22:44:03.276Z,-7.50
2023-02-06T22:46:34.973Z,-7.50
2023-02-06T22:49:03.434Z,-7.60
2023-02-06T22:51:31.551Z,-7.60
2023-02-06T22:54:00.516Z,-7.60
2023-02-06T22:56:31.447Z,-7.60
2023-02-06T22:59:01.441Z,-7.60
2023-02-06T23:01:33.173Z,-7.70
2023-02-06T23:04:02.313Z,-7.70
2023-02-06T23:06:31.630Z,-7.70
2023-02-06T23:09:01.830Z,-7.70
2023-02-06T23:11:31.829Z,-7.70
2023-02-06T23:14:02.356Z,-7.70
2023-02-06T23:16:33.871Z,-7.70
2023-02-06T23:19:04.410Z,-7.80
2023-02-06T23:21:33.991Z,-7.80
2023-02-06T23:24:02.327Z,-7.80
2023-02-06T23:26:31.736Z,-7.90
2023-02-06T23:29:01.262Z,-7.90
2023-02-06T23:31:29.934Z,-8.00
2023-02-06T23:33:59.503Z,-8.00
2023-02-06T23:36:28.746Z,-8.00
2023-02-06T23:38:57.202Z,-8.00
2023-02-06T23:41:27.036Z,-8.10
2023-02-06T23:43:56.214Z,-8.10
2023-02-06T23:46:25.478Z,-8.10
2023-02-06T23:48:53.963Z,-8.10
2023-02-06T23:51:23.721Z,-8.00
2023-02-06T23:53:52.303Z,-8.00
2023-02-06T23:56:23.070Z,-8.10
2023-02-06T23:58:51.878Z,-8.10
